sensor_id;sensor_type;location;lat;lon;timestamp;P1;durP1;ratioP1;P2;durP2;ratioP2
81903;SDS011;71370;-33.792;151.032;2024-01-10T00:00:50;6.60;;;2.20;;
81903;SDS011;71370;-33.792;151.032;2024-01-10T00:01:57;7.00;;;2.20;;
81903;SDS011;71370;-33.792;151.032;2024-01-10T00:03:04;4.90;;;2.20;;
81903;SDS011;71370;-33.792;151.032;2024-01-10T00:04:11;6.00;;;2.30;;
81903;SDS011;71370;-33.792;151.032;2024-01-10T00:05:18;6.60;;;2.20;;
81903;SDS011;71370;-33.792;151.032;2024-01-10T00:06:25;6.10;;;2.40;;
81903;SDS011;71370;-33.792;151.032;2024-01-10T00:07:32;5.00;;;2.50;;
81903;SDS011;71370;-33.792;151.032;2024-01-10T00:08:41;7.20;;;2.70;;
81903;SDS011;71370;-33.792;151.032;2024-01-10T00:09:48;5.90;;;2.40;;
81903;SDS011;71370;-33.792;151.032;2024-01-10T00:10:55;6.50;;;2.50;;
81903;SDS011;71370;-33.792;151.032;2024-01-10T00:12:02;7.20;;;2.90;;
81903;SDS011;71370;-33.792;151.032;2024-01-10T00:13:09;6.80;;;3.80;;
81903;SDS011;71370;-33.792;151.032;2024-01-10T00:14:16;6.10;;;3.30;;
81903;SDS011;71370;-33.792;151.032;2024-01-10T00:15:23;5.90;;;2.90;;
81903;SDS011;71370;-33.792;151.032;2024-01-10T00:16:30;6.80;;;3.10;;
81903;SDS011;71370;-33.792;151.032;2024-01-10T00:17:37;6.40;;;3.40;;
81903;SDS011;71370;-33.792;151.032;2024-01-10T00:18:45;4.70;;;2.80;;
81903;SDS011;71370;-33.792;151.032;2024-01-10T00:19:52;7.30;;;2.90;;
81903;SDS011;71370;-33.792;151.032;2024-01-10T00:20:59;6.50;;;3.30;;
81903;SDS011;71370;-33.792;151.032;2024-01-10T00:22:06;6.90;;;3.30;;
81903;SDS011;71370;-33.792;151.032;2024-01-10T00:23:13;7.00;;;2.80;;
81903;SDS011;71370;-33.792;151.032;2024-01-10T00:24:20;5.40;;;3.50;;
81903;SDS011;71370;-33.792;151.032;2024-01-10T00:25:26;5.60;;;3.30;;
81903;SDS011;71370;-33.792;151.032;2024-01-10T00:26:33;8.00;;;3.30;;
81903;SDS011;71370;-33.792;151.032;2024-01-10T00:27:40;6.10;;;3.00;;
81903;SDS011;71370;-33.792;151.032;2024-01-10T00:28:47;6.70;;;3.10;;
81903;SDS011;71370;-33.792;151.032;2024-01-10T00:29:54;7.30;;;3.50;;
81903;SDS011;71370;-33.792;151.032;2024-01-10T00:31:02;4.50;;;3.00;;
81903;SDS011;71370;-33.792;151.032;2024-01-10T00:32:09;6.70;;;3.10;;
81903;SDS011;71370;-33.792;151.032;2024-01-10T00:33:16;4.80;;;3.40;;
81903;SDS011;71370;-33.792;151.032;2024-01-10T00:34:23;6.20;;;3.20;;
81903;SDS011;71370;-33.792;151.032;2024-01-10T00:35:30;6.60;;;4.10;;
81903;SDS011;71370;-33.792;151.032;2024-01-10T00:36:37;6.30;;;2.80;;
81903;SDS011;71370;-33.792;151.032;2024-01-10T00:37:44;5.30;;;3.00;;
81903;SDS011;71370;-33.792;151.032;2024-01-10T00:38:51;5.40;;;3.20;;
81903;SDS011;71370;-33.792;151.032;2024-01-10T00:39:58;6.70;;;3.10;;
81903;SDS011;71370;-33.792;151.032;2024-01-10T00:41:05;7.00;;;3.00;;
81903;SDS011;71370;-33.792;151.032;2024-01-10T00:42:12;6.70;;;3.40;;
81903;SDS011;71370;-33.792;151.032;2024-01-10T00:43:19;7.40;;;3.70;;
81903;SDS011;71370;-33.792;151.032;2024-01-10T00:44:26;7.60;;;3.10;;
81903;SDS011;71370;-33.792;151.032;2024-01-10T00:45:33;6.20;;;3.00;;
81903;SDS011;71370;-33.792;151.032;2024-01-10T00:46:40;5.30;;;2.30;;
81903;SDS011;71370;-33.792;151.032;2024-01-10T00:47:50;6.80;;;3.80;;
81903;SDS011;71370;-33.792;151.032;2024-01-10T00:48:57;5.40;;;3.10;;
81903;SDS011;71370;-33.792;151.032;2024-01-10T00:50:04;5.10;;;2.80;;
81903;SDS011;71370;-33.792;151.032;2024-01-10T00:51:12;4.30;;;2.40;;
81903;SDS011;71370;-33.792;151.032;2024-01-10T00:52:19;7.60;;;3.10;;
81903;SDS011;71370;-33.792;151.032;2024-01-10T00:53:25;5.30;;;2.40;;
81903;SDS011;71370;-33.792;151.032;2024-01-10T00:54:32;5.20;;;2.90;;
81903;SDS011;71370;-33.792;151.032;2024-01-10T00:55:39;7.30;;;3.10;;
81903;SDS011;71370;-33.792;151.032;2024-01-10T00:56:46;6.50;;;3.00;;
81903;SDS011;71370;-33.792;151.032;2024-01-10T00:57:55;5.90;;;2.70;;
81903;SDS011;71370;-33.792;151.032;2024-01-10T00:59:02;4.80;;;2.50;;
81903;SDS011;71370;-33.792;151.032;2024-01-10T01:00:09;6.50;;;3.00;;
81903;SDS011;71370;-33.792;151.032;2024-01-10T01:01:17;5.20;;;3.90;;
81903;SDS011;71370;-33.792;151.032;2024-01-10T01:02:24;6.50;;;2.90;;
81903;SDS011;71370;-33.792;151.032;2024-01-10T01:03:30;7.30;;;3.10;;
81903;SDS011;71370;-33.792;151.032;2024-01-10T01:04:37;5.30;;;2.70;;
81903;SDS011;71370;-33.792;151.032;2024-01-10T01:05:44;7.00;;;3.20;;
81903;SDS011;71370;-33.792;151.032;2024-01-10T01:06:51;5.30;;;2.90;;
81903;SDS011;71370;-33.792;151.032;2024-01-10T01:07:58;6.70;;;3.20;;
81903;SDS011;71370;-33.792;151.032;2024-01-10T01:09:05;6.50;;;2.80;;
81903;SDS011;71370;-33.792;151.032;2024-01-10T01:10:12;6.20;;;2.70;;
81903;SDS011;71370;-33.792;151.032;2024-01-10T01:11:19;6.00;;;2.80;;
81903;SDS011;71370;-33.792;151.032;2024-01-10T01:12:26;5.30;;;2.60;;
81903;SDS011;71370;-33.792;151.032;2024-01-10T01:13:33;5.80;;;2.40;;
81903;SDS011;71370;-33.792;151.032;2024-01-10T01:14:40;4.60;;;2.70;;
81903;SDS011;71370;-33.792;151.032;2024-01-10T01:15:47;6.40;;;3.00;;
81903;SDS011;71370;-33.792;151.032;2024-01-10T01:16:54;5.70;;;2.60;;
81903;SDS011;71370;-33.792;151.032;2024-01-10T01:18:01;6.90;;;2.80;;
81903;SDS011;71370;-33.792;151.032;2024-01-10T01:19:08;6.70;;;3.60;;
81903;SDS011;71370;-33.792;151.032;2024-01-10T01:20:15;5.30;;;2.70;;
81903;SDS011;71370;-33.792;151.032;2024-01-10T01:21:22;6.10;;;3.20;;
81903;SDS011;71370;-33.792;151.032;2024-01-10T01:22:29;5.50;;;3.00;;
81903;SDS011;71370;-33.792;151.032;2024-01-10T01:23:37;4.90;;;3.00;;
81903;SDS011;71370;-33.792;151.032;2024-01-10T01:24:43;5.10;;;2.70;;
81903;SDS011;71370;-33.792;151.032;2024-01-10T01:25:50;5.10;;;2.80;;
81903;SDS011;71370;-33.792;151.032;2024-01-10T01:26:57;4.70;;;2.50;;
81903;SDS011;71370;-33.792;151.032;2024-01-10T01:28:04;5.10;;;2.70;;
81903;SDS011;71370;-33.792;151.032;2024-01-10T01:29:11;6.70;;;3.70;;
81903;SDS011;71370;-33.792;151.032;2024-01-10T01:30:18;5.60;;;3.20;;
81903;SDS011;71370;-33.792;151.032;2024-01-10T01:31:27;5.70;;;3.70;;
81903;SDS011;71370;-33.792;151.032;2024-01-10T01:32:34;5.30;;;2.70;;
81903;SDS011;71370;-33.792;151.032;2024-01-10T01:33:41;6.00;;;2.80;;
81903;SDS011;71370;-33.792;151.032;2024-01-10T01:34:47;4.70;;;2.40;;
81903;SDS011;71370;-33.792;151.032;2024-01-10T01:35:55;6.20;;;3.10;;
81903;SDS011;71370;-33.792;151.032;2024-01-10T01:37:02;5.50;;;3.00;;
81903;SDS011;71370;-33.792;151.032;2024-01-10T01:38:09;5.60;;;3.70;;
81903;SDS011;71370;-33.792;151.032;2024-01-10T01:39:16;5.50;;;3.60;;
81903;SDS011;71370;-33.792;151.032;2024-01-10T01:40:24;5.70;;;2.50;;
81903;SDS011;71370;-33.792;151.032;2024-01-10T01:41:31;6.40;;;2.80;;
81903;SDS011;71370;-33.792;151.032;2024-01-10T01:42:37;5.10;;;3.10;;
81903;SDS011;71370;-33.792;151.032;2024-01-10T01:43:44;4.60;;;2.60;;
81903;SDS011;71370;-33.792;151.032;2024-01-10T01:44:51;4.70;;;2.90;;
81903;SDS011;71370;-33.792;151.032;2024-01-10T01:45:58;4.90;;;2.90;;
81903;SDS011;71370;-33.792;151.032;2024-01-10T01:47:05;6.90;;;3.50;;
81903;SDS011;71370;-33.792;151.032;2024-01-10T01:48:13;5.90;;;2.60;;
81903;SDS011;71370;-33.792;151.032;2024-01-10T01:49:20;4.70;;;2.90;;
81903;SDS011;71370;-33.792;151.032;2024-01-10T01:50:27;5.40;;;3.40;;
81903;SDS011;71370;-33.792;151.032;2024-01-10T01:51:34;4.70;;;3.10;;
81903;SDS011;71370;-33.792;151.032;2024-01-10T01:52:43;5.90;;;3.70;;
81903;SDS011;71370;-33.792;151.032;2024-01-10T01:53:50;6.00;;;3.50;;
81903;SDS011;71370;-33.792;151.032;2024-01-10T01:54:58;6.30;;;3.30;;
81903;SDS011;71370;-33.792;151.032;2024-01-10T01:56:06;5.30;;;3.30;;
81903;SDS011;71370;-33.792;151.032;2024-01-10T01:57:14;4.80;;;3.10;;
81903;SDS011;71370;-33.792;151.032;2024-01-10T01:58:22;5.20;;;3.50;;
81903;SDS011;71370;-33.792;151.032;2024-01-10T01:59:29;5.40;;;3.50;;
81903;SDS011;71370;-33.792;151.032;2024-01-10T02:00:36;6.00;;;4.60;;
81903;SDS011;71370;-33.792;151.032;2024-01-10T02:01:45;6.50;;;3.70;;
81903;SDS011;71370;-33.792;151.032;2024-01-10T02:02:52;4.90;;;3.70;;
81903;SDS011;71370;-33.792;151.032;2024-01-10T02:04:03;6.90;;;3.00;;
81903;SDS011;71370;-33.792;151.032;2024-01-10T02:05:10;5.80;;;3.60;;
81903;SDS011;71370;-33.792;151.032;2024-01-10T02:06:19;6.10;;;2.90;;
81903;SDS011;71370;-33.792;151.032;2024-01-10T02:07:26;6.30;;;4.30;;
81903;SDS011;71370;-33.792;151.032;2024-01-10T02:08:34;6.20;;;4.20;;
81903;SDS011;71370;-33.792;151.032;2024-01-10T02:09:41;5.90;;;3.50;;
81903;SDS011;71370;-33.792;151.032;2024-01-10T02:10:48;6.80;;;3.40;;
81903;SDS011;71370;-33.792;151.032;2024-01-10T02:11:55;6.30;;;3.00;;
81903;SDS011;71370;-33.792;151.032;2024-01-10T02:13:02;5.10;;;4.20;;
81903;SDS011;71370;-33.792;151.032;2024-01-10T02:14:10;6.30;;;3.80;;
81903;SDS011;71370;-33.792;151.032;2024-01-10T02:15:18;9.40;;;3.70;;
81903;SDS011;71370;-33.792;151.032;2024-01-10T02:16:25;5.00;;;3.80;;
81903;SDS011;71370;-33.792;151.032;2024-01-10T02:17:32;6.20;;;3.90;;
81903;SDS011;71370;-33.792;151.032;2024-01-10T02:18:39;5.80;;;3.50;;
81903;SDS011;71370;-33.792;151.032;2024-01-10T02:19:46;5.90;;;3.90;;
81903;SDS011;71370;-33.792;151.032;2024-01-10T02:20:53;5.90;;;3.80;;
81903;SDS011;71370;-33.792;151.032;2024-01-10T02:22:00;5.90;;;4.00;;
81903;SDS011;71370;-33.792;151.032;2024-01-10T02:23:08;5.70;;;3.30;;
81903;SDS011;71370;-33.792;151.032;2024-01-10T02:24:15;5.30;;;3.10;;
81903;SDS011;71370;-33.792;151.032;2024-01-10T02:25:22;6.10;;;4.20;;
81903;SDS011;71370;-33.792;151.032;2024-01-10T02:26:29;5.90;;;4.50;;
81903;SDS011;71370;-33.792;151.032;2024-01-10T02:27:36;6.70;;;4.90;;
81903;SDS011;71370;-33.792;151.032;2024-01-10T02:28:44;6.30;;;5.70;;
81903;SDS011;71370;-33.792;151.032;2024-01-10T02:29:51;7.40;;;5.10;;
81903;SDS011;71370;-33.792;151.032;2024-01-10T02:31:00;6.30;;;4.40;;
81903;SDS011;71370;-33.792;151.032;2024-01-10T02:32:07;5.90;;;4.50;;
81903;SDS011;71370;-33.792;151.032;2024-01-10T02:33:14;7.00;;;4.80;;
81903;SDS011;71370;-33.792;151.032;2024-01-10T02:34:21;6.40;;;4.60;;
81903;SDS011;71370;-33.792;151.032;2024-01-10T02:35:28;5.60;;;4.40;;
81903;SDS011;71370;-33.792;151.032;2024-01-10T02:36:38;5.80;;;3.90;;
81903;SDS011;71370;-33.792;151.032;2024-01-10T02:37:45;6.20;;;4.70;;
81903;SDS011;71370;-33.792;151.032;2024-01-10T02:38:52;8.40;;;4.80;;
81903;SDS011;71370;-33.792;151.032;2024-01-10T02:39:59;7.70;;;4.70;;
81903;SDS011;71370;-33.792;151.032;2024-01-10T02:41:06;6.30;;;5.10;;
81903;SDS011;71370;-33.792;151.032;2024-01-10T02:42:13;6.50;;;4.60;;
81903;SDS011;71370;-33.792;151.032;2024-01-10T02:43:20;8.50;;;4.80;;
81903;SDS011;71370;-33.792;151.032;2024-01-10T02:44:26;6.30;;;5.00;;
81903;SDS011;71370;-33.792;151.032;2024-01-10T02:45:33;7.20;;;4.30;;
81903;SDS011;71370;-33.792;151.032;2024-01-10T02:46:41;6.10;;;5.00;;
81903;SDS011;71370;-33.792;151.032;2024-01-10T02:47:48;6.00;;;5.40;;
81903;SDS011;71370;-33.792;151.032;2024-01-10T02:48:55;5.80;;;5.20;;
81903;SDS011;71370;-33.792;151.032;2024-01-10T02:50:02;6.60;;;5.20;;
81903;SDS011;71370;-33.792;151.032;2024-01-10T02:51:09;8.00;;;5.70;;
81903;SDS011;71370;-33.792;151.032;2024-01-10T02:52:16;5.90;;;5.10;;
81903;SDS011;71370;-33.792;151.032;2024-01-10T02:53:25;6.60;;;5.10;;
81903;SDS011;71370;-33.792;151.032;2024-01-10T02:54:32;6.80;;;5.00;;
81903;SDS011;71370;-33.792;151.032;2024-01-10T02:55:38;7.70;;;5.20;;
81903;SDS011;71370;-33.792;151.032;2024-01-10T02:56:46;7.10;;;5.40;;
81903;SDS011;71370;-33.792;151.032;2024-01-10T02:57:53;7.60;;;5.20;;
81903;SDS011;71370;-33.792;151.032;2024-01-10T02:59:00;7.00;;;4.60;;
81903;SDS011;71370;-33.792;151.032;2024-01-10T03:00:07;6.00;;;5.20;;
81903;SDS011;71370;-33.792;151.032;2024-01-10T03:01:14;7.70;;;6.10;;
81903;SDS011;71370;-33.792;151.032;2024-01-10T03:02:21;7.60;;;6.90;;
81903;SDS011;71370;-33.792;151.032;2024-01-10T03:03:29;7.70;;;7.00;;
81903;SDS011;71370;-33.792;151.032;2024-01-10T03:04:36;7.50;;;5.90;;
81903;SDS011;71370;-33.792;151.032;2024-01-10T03:05:43;6.80;;;5.80;;
81903;SDS011;71370;-33.792;151.032;2024-01-10T03:06:50;7.60;;;5.80;;
81903;SDS011;71370;-33.792;151.032;2024-01-10T03:07:57;6.80;;;6.10;;
81903;SDS011;71370;-33.792;151.032;2024-01-10T03:09:04;7.60;;;6.80;;
81903;SDS011;71370;-33.792;151.032;2024-01-10T03:10:11;7.30;;;5.90;;
81903;SDS011;71370;-33.792;151.032;2024-01-10T03:11:18;8.10;;;7.30;;
81903;SDS011;71370;-33.792;151.032;2024-01-10T03:12:24;7.80;;;6.40;;
81903;SDS011;71370;-33.792;151.032;2024-01-10T03:13:31;7.90;;;6.00;;
81903;SDS011;71370;-33.792;151.032;2024-01-10T03:14:38;8.10;;;7.30;;
81903;SDS011;71370;-33.792;151.032;2024-01-10T03:15:45;8.10;;;6.40;;
81903;SDS011;71370;-33.792;151.032;2024-01-10T03:16:52;8.30;;;7.10;;
81903;SDS011;71370;-33.792;151.032;2024-01-10T03:17:59;7.80;;;6.70;;
81903;SDS011;71370;-33.792;151.032;2024-01-10T03:19:06;7.40;;;6.30;;
81903;SDS011;71370;-33.792;151.032;2024-01-10T03:20:13;8.90;;;8.00;;
81903;SDS011;71370;-33.792;151.032;2024-01-10T03:21:21;8.80;;;7.10;;
81903;SDS011;71370;-33.792;151.032;2024-01-10T03:22:31;8.30;;;6.40;;
81903;SDS011;71370;-33.792;151.032;2024-01-10T03:23:38;8.90;;;6.90;;
81903;SDS011;71370;-33.792;151.032;2024-01-10T03:24:45;8.70;;;6.60;;
81903;SDS011;71370;-33.792;151.032;2024-01-10T03:25:53;9.20;;;7.40;;
81903;SDS011;71370;-33.792;151.032;2024-01-10T03:27:00;8.70;;;7.50;;
81903;SDS011;71370;-33.792;151.032;2024-01-10T03:28:07;8.30;;;7.40;;
81903;SDS011;71370;-33.792;151.032;2024-01-10T03:29:14;9.00;;;7.70;;
81903;SDS011;71370;-33.792;151.032;2024-01-10T03:30:21;10.70;;;9.60;;
81903;SDS011;71370;-33.792;151.032;2024-01-10T03:31:29;9.60;;;8.60;;
81903;SDS011;71370;-33.792;151.032;2024-01-10T03:32:37;8.70;;;7.80;;
81903;SDS011;71370;-33.792;151.032;2024-01-10T03:33:44;8.90;;;7.70;;
81903;SDS011;71370;-33.792;151.032;2024-01-10T03:34:51;9.10;;;7.80;;
81903;SDS011;71370;-33.792;151.032;2024-01-10T03:35:58;8.30;;;7.20;;
81903;SDS011;71370;-33.792;151.032;2024-01-10T03:37:05;8.80;;;7.10;;
81903;SDS011;71370;-33.792;151.032;2024-01-10T03:38:12;8.60;;;7.50;;
81903;SDS011;71370;-33.792;151.032;2024-01-10T03:39:21;9.00;;;8.10;;
81903;SDS011;71370;-33.792;151.032;2024-01-10T03:40:28;8.90;;;7.30;;
81903;SDS011;71370;-33.792;151.032;2024-01-10T03:41:35;8.40;;;7.50;;
81903;SDS011;71370;-33.792;151.032;2024-01-10T03:42:42;10.60;;;8.60;;
81903;SDS011;71370;-33.792;151.032;2024-01-10T03:43:49;8.30;;;7.40;;
81903;SDS011;71370;-33.792;151.032;2024-01-10T03:44:56;9.70;;;7.70;;
81903;SDS011;71370;-33.792;151.032;2024-01-10T03:46:03;9.10;;;7.50;;
81903;SDS011;71370;-33.792;151.032;2024-01-10T03:47:11;9.90;;;7.40;;
81903;SDS011;71370;-33.792;151.032;2024-01-10T03:48:18;8.50;;;7.20;;
81903;SDS011;71370;-33.792;151.032;2024-01-10T03:49:25;9.90;;;7.40;;
81903;SDS011;71370;-33.792;151.032;2024-01-10T03:50:32;7.90;;;7.10;;
81903;SDS011;71370;-33.792;151.032;2024-01-10T03:51:38;9.10;;;7.50;;
81903;SDS011;71370;-33.792;151.032;2024-01-10T03:52:46;7.40;;;6.50;;
81903;SDS011;71370;-33.792;151.032;2024-01-10T03:53:53;9.30;;;6.70;;
81903;SDS011;71370;-33.792;151.032;2024-01-10T03:55:00;9.20;;;7.40;;
81903;SDS011;71370;-33.792;151.032;2024-01-10T03:56:07;8.90;;;8.00;;
81903;SDS011;71370;-33.792;151.032;2024-01-10T03:57:15;7.60;;;6.80;;
81903;SDS011;71370;-33.792;151.032;2024-01-10T03:58:21;9.10;;;6.90;;
81903;SDS011;71370;-33.792;151.032;2024-01-10T03:59:29;8.40;;;7.10;;
81903;SDS011;71370;-33.792;151.032;2024-01-10T04:00:36;8.70;;;5.90;;
81903;SDS011;71370;-33.792;151.032;2024-01-10T04:01:43;7.80;;;6.50;;
81903;SDS011;71370;-33.792;151.032;2024-01-10T04:02:50;7.20;;;6.40;;
81903;SDS011;71370;-33.792;151.032;2024-01-10T04:03:57;8.10;;;6.70;;
81903;SDS011;71370;-33.792;151.032;2024-01-10T04:05:07;7.50;;;6.20;;
81903;SDS011;71370;-33.792;151.032;2024-01-10T04:06:18;7.70;;;6.40;;
81903;SDS011;71370;-33.792;151.032;2024-01-10T04:07:26;9.60;;;6.00;;
81903;SDS011;71370;-33.792;151.032;2024-01-10T04:08:33;8.20;;;5.90;;
81903;SDS011;71370;-33.792;151.032;2024-01-10T04:09:41;8.40;;;5.90;;
81903;SDS011;71370;-33.792;151.032;2024-01-10T04:10:48;8.20;;;7.30;;
81903;SDS011;71370;-33.792;151.032;2024-01-10T04:11:55;8.10;;;6.10;;
81903;SDS011;71370;-33.792;151.032;2024-01-10T04:13:01;8.50;;;6.20;;
81903;SDS011;71370;-33.792;151.032;2024-01-10T04:14:08;8.40;;;6.90;;
81903;SDS011;71370;-33.792;151.032;2024-01-10T04:15:15;8.70;;;5.40;;
81903;SDS011;71370;-33.792;151.032;2024-01-10T04:16:25;8.00;;;5.90;;
81903;SDS011;71370;-33.792;151.032;2024-01-10T04:17:33;6.80;;;5.70;;
81903;SDS011;71370;-33.792;151.032;2024-01-10T04:18:40;8.80;;;5.80;;
81903;SDS011;71370;-33.792;151.032;2024-01-10T04:19:47;9.00;;;6.50;;
81903;SDS011;71370;-33.792;151.032;2024-01-10T04:20:53;8.60;;;6.00;;
81903;SDS011;71370;-33.792;151.032;2024-01-10T04:22:01;8.50;;;6.40;;
81903;SDS011;71370;-33.792;151.032;2024-01-10T04:23:07;7.90;;;5.70;;
81903;SDS011;71370;-33.792;151.032;2024-01-10T04:24:14;7.90;;;5.80;;
81903;SDS011;71370;-33.792;151.032;2024-01-10T04:25:21;9.00;;;6.40;;
81903;SDS011;71370;-33.792;151.032;2024-01-10T04:26:28;7.40;;;5.10;;
81903;SDS011;71370;-33.792;151.032;2024-01-10T04:27:35;8.00;;;6.00;;
81903;SDS011;71370;-33.792;151.032;2024-01-10T04:28:42;8.50;;;6.10;;
81903;SDS011;71370;-33.792;151.032;2024-01-10T04:29:49;8.60;;;7.10;;
81903;SDS011;71370;-33.792;151.032;2024-01-10T04:30:56;8.40;;;6.00;;
81903;SDS011;71370;-33.792;151.032;2024-01-10T04:32:03;7.60;;;5.40;;
81903;SDS011;71370;-33.792;151.032;2024-01-10T04:33:11;8.30;;;6.30;;
81903;SDS011;71370;-33.792;151.032;2024-01-10T04:34:18;6.70;;;5.30;;
81903;SDS011;71370;-33.792;151.032;2024-01-10T04:35:25;7.30;;;5.50;;
81903;SDS011;71370;-33.792;151.032;2024-01-10T04:36:32;8.20;;;6.50;;
81903;SDS011;71370;-33.792;151.032;2024-01-10T04:37:39;7.60;;;5.90;;
81903;SDS011;71370;-33.792;151.032;2024-01-10T04:38:46;9.90;;;6.30;;
81903;SDS011;71370;-33.792;151.032;2024-01-10T04:39:52;8.60;;;5.20;;
81903;SDS011;71370;-33.792;151.032;2024-01-10T04:40:59;8.20;;;5.70;;
81903;SDS011;71370;-33.792;151.032;2024-01-10T04:42:06;8.70;;;5.70;;
81903;SDS011;71370;-33.792;151.032;2024-01-10T04:43:14;7.90;;;5.80;;
81903;SDS011;71370;-33.792;151.032;2024-01-10T04:44:21;8.70;;;7.10;;
81903;SDS011;71370;-33.792;151.032;2024-01-10T04:45:28;7.80;;;5.40;;
81903;SDS011;71370;-33.792;151.032;2024-01-10T04:46:34;8.20;;;5.70;;
81903;SDS011;71370;-33.792;151.032;2024-01-10T04:47:41;6.70;;;5.10;;
81903;SDS011;71370;-33.792;151.032;2024-01-10T04:48:50;9.40;;;4.90;;
81903;SDS011;71370;-33.792;151.032;2024-01-10T04:50:01;7.90;;;5.70;;
81903;SDS011;71370;-33.792;151.032;2024-01-10T04:51:08;8.60;;;5.10;;
81903;SDS011;71370;-33.792;151.032;2024-01-10T04:52:15;7.30;;;5.40;;
81903;SDS011;71370;-33.792;151.032;2024-01-10T04:53:22;7.50;;;5.80;;
81903;SDS011;71370;-33.792;151.032;2024-01-10T04:54:29;7.40;;;5.20;;
81903;SDS011;71370;-33.792;151.032;2024-01-10T04:55:36;8.80;;;5.30;;
81903;SDS011;71370;-33.792;151.032;2024-01-10T04:56:43;10.60;;;6.10;;
81903;SDS011;71370;-33.792;151.032;2024-01-10T04:57:49;8.10;;;5.40;;
81903;SDS011;71370;-33.792;151.032;2024-01-10T04:58:56;7.70;;;5.00;;
81903;SDS011;71370;-33.792;151.032;2024-01-10T05:00:03;8.60;;;4.90;;
81903;SDS011;71370;-33.792;151.032;2024-01-10T05:01:12;7.30;;;5.10;;
81903;SDS011;71370;-33.792;151.032;2024-01-10T05:02:19;10.40;;;5.60;;
81903;SDS011;71370;-33.792;151.032;2024-01-10T05:03:25;7.90;;;4.40;;
81903;SDS011;71370;-33.792;151.032;2024-01-10T05:04:32;8.60;;;4.90;;
81903;SDS011;71370;-33.792;151.032;2024-01-10T05:05:39;6.60;;;4.50;;
81903;SDS011;71370;-33.792;151.032;2024-01-10T05:06:46;7.50;;;5.00;;
81903;SDS011;71370;-33.792;151.032;2024-01-10T05:07:53;7.10;;;4.30;;
81903;SDS011;71370;-33.792;151.032;2024-01-10T05:09:00;8.20;;;5.00;;
81903;SDS011;71370;-33.792;151.032;2024-01-10T05:10:07;6.90;;;4.60;;
81903;SDS011;71370;-33.792;151.032;2024-01-10T05:11:15;8.70;;;4.90;;
81903;SDS011;71370;-33.792;151.032;2024-01-10T05:12:22;7.40;;;4.10;;
81903;SDS011;71370;-33.792;151.032;2024-01-10T05:13:29;7.70;;;4.30;;
81903;SDS011;71370;-33.792;151.032;2024-01-10T05:14:36;7.00;;;4.40;;
81903;SDS011;71370;-33.792;151.032;2024-01-10T05:15:43;6.80;;;4.20;;
81903;SDS011;71370;-33.792;151.032;2024-01-10T05:16:50;7.10;;;5.50;;
81903;SDS011;71370;-33.792;151.032;2024-01-10T05:17:59;7.70;;;4.20;;
81903;SDS011;71370;-33.792;151.032;2024-01-10T05:19:06;9.30;;;4.10;;
81903;SDS011;71370;-33.792;151.032;2024-01-10T05:20:13;6.20;;;4.10;;
81903;SDS011;71370;-33.792;151.032;2024-01-10T05:21:20;7.70;;;5.30;;
81903;SDS011;71370;-33.792;151.032;2024-01-10T05:22:28;6.90;;;4.30;;
81903;SDS011;71370;-33.792;151.032;2024-01-10T05:23:35;7.70;;;4.20;;
81903;SDS011;71370;-33.792;151.032;2024-01-10T05:24:44;8.10;;;4.50;;
81903;SDS011;71370;-33.792;151.032;2024-01-10T05:25:53;8.50;;;4.90;;
81903;SDS011;71370;-33.792;151.032;2024-01-10T05:27:00;6.50;;;4.30;;
81903;SDS011;71370;-33.792;151.032;2024-01-10T05:28:07;7.00;;;4.00;;
81903;SDS011;71370;-33.792;151.032;2024-01-10T05:29:14;7.00;;;4.20;;
81903;SDS011;71370;-33.792;151.032;2024-01-10T05:30:20;7.10;;;4.40;;
81903;SDS011;71370;-33.792;151.032;2024-01-10T05:31:27;8.10;;;4.80;;
81903;SDS011;71370;-33.792;151.032;2024-01-10T05:32:34;7.90;;;5.70;;
81903;SDS011;71370;-33.792;151.032;2024-01-10T05:33:42;7.40;;;4.60;;
81903;SDS011;71370;-33.792;151.032;2024-01-10T05:34:49;7.10;;;4.30;;
81903;SDS011;71370;-33.792;151.032;2024-01-10T05:35:55;8.50;;;4.80;;
81903;SDS011;71370;-33.792;151.032;2024-01-10T05:37:03;8.10;;;4.40;;
81903;SDS011;71370;-33.792;151.032;2024-01-10T05:38:10;7.90;;;4.70;;
81903;SDS011;71370;-33.792;151.032;2024-01-10T05:39:17;6.20;;;3.90;;
81903;SDS011;71370;-33.792;151.032;2024-01-10T05:40:26;7.20;;;5.00;;
81903;SDS011;71370;-33.792;151.032;2024-01-10T05:41:33;6.80;;;3.60;;
81903;SDS011;71370;-33.792;151.032;2024-01-10T05:42:39;8.50;;;4.90;;
81903;SDS011;71370;-33.792;151.032;2024-01-10T05:43:46;6.20;;;4.70;;
81903;SDS011;71370;-33.792;151.032;2024-01-10T05:44:53;6.60;;;4.20;;
81903;SDS011;71370;-33.792;151.032;2024-01-10T05:46:00;6.50;;;3.90;;
81903;SDS011;71370;-33.792;151.032;2024-01-10T05:47:07;6.30;;;4.60;;
81903;SDS011;71370;-33.792;151.032;2024-01-10T05:48:14;7.40;;;4.20;;
81903;SDS011;71370;-33.792;151.032;2024-01-10T05:49:22;6.30;;;4.20;;
81903;SDS011;71370;-33.792;151.032;2024-01-10T05:50:29;6.70;;;4.40;;
81903;SDS011;71370;-33.792;151.032;2024-01-10T05:51:36;7.60;;;4.60;;
81903;SDS011;71370;-33.792;151.032;2024-01-10T05:52:43;7.20;;;3.80;;
81903;SDS011;71370;-33.792;151.032;2024-01-10T05:53:50;5.60;;;3.60;;
81903;SDS011;71370;-33.792;151.032;2024-01-10T05:54:57;6.10;;;3.60;;
81903;SDS011;71370;-33.792;151.032;2024-01-10T05:56:05;7.10;;;3.50;;
81903;SDS011;71370;-33.792;151.032;2024-01-10T05:57:12;7.70;;;4.50;;
81903;SDS011;71370;-33.792;151.032;2024-01-10T05:58:20;7.20;;;5.10;;
81903;SDS011;71370;-33.792;151.032;2024-01-10T05:59:27;7.20;;;5.20;;
81903;SDS011;71370;-33.792;151.032;2024-01-10T06:00:34;6.30;;;4.00;;
81903;SDS011;71370;-33.792;151.032;2024-01-10T06:01:41;6.30;;;4.10;;
81903;SDS011;71370;-33.792;151.032;2024-01-10T06:02:48;7.70;;;5.10;;
81903;SDS011;71370;-33.792;151.032;2024-01-10T06:03:55;6.20;;;4.90;;
81903;SDS011;71370;-33.792;151.032;2024-01-10T06:05:02;7.30;;;3.90;;
81903;SDS011;71370;-33.792;151.032;2024-01-10T06:06:10;7.00;;;4.70;;
81903;SDS011;71370;-33.792;151.032;2024-01-10T06:07:17;6.20;;;4.00;;
81903;SDS011;71370;-33.792;151.032;2024-01-10T06:08:25;6.40;;;4.40;;
81903;SDS011;71370;-33.792;151.032;2024-01-10T06:09:34;7.00;;;4.70;;
81903;SDS011;71370;-33.792;151.032;2024-01-10T06:10:41;6.80;;;4.50;;
81903;SDS011;71370;-33.792;151.032;2024-01-10T06:11:48;8.00;;;5.00;;
81903;SDS011;71370;-33.792;151.032;2024-01-10T06:12:55;5.80;;;3.80;;
81903;SDS011;71370;-33.792;151.032;2024-01-10T06:14:02;5.50;;;3.70;;
81903;SDS011;71370;-33.792;151.032;2024-01-10T06:15:09;6.70;;;4.50;;
81903;SDS011;71370;-33.792;151.032;2024-01-10T06:16:16;6.20;;;4.60;;
81903;SDS011;71370;-33.792;151.032;2024-01-10T06:17:23;7.30;;;4.40;;
81903;SDS011;71370;-33.792;151.032;2024-01-10T06:18:30;6.00;;;4.30;;
81903;SDS011;71370;-33.792;151.032;2024-01-10T06:19:37;5.90;;;4.50;;
81903;SDS011;71370;-33.792;151.032;2024-01-10T06:20:45;5.50;;;3.30;;
81903;SDS011;71370;-33.792;151.032;2024-01-10T06:21:51;7.20;;;3.90;;
81903;SDS011;71370;-33.792;151.032;2024-01-10T06:22:58;7.00;;;3.90;;
81903;SDS011;71370;-33.792;151.032;2024-01-10T06:24:05;6.80;;;4.30;;
81903;SDS011;71370;-33.792;151.032;2024-01-10T06:25:13;6.60;;;3.90;;
81903;SDS011;71370;-33.792;151.032;2024-01-10T06:26:21;6.40;;;4.60;;
81903;SDS011;71370;-33.792;151.032;2024-01-10T06:27:27;5.40;;;4.20;;